ADDS METAR Data INFO
IDs: Format: Raw Decoded Include TAF

Data at: 1147 UTC 25 Jun 2018

KSGR 251053Z AUTO 14005KT 10SM FEW023 BKN034 OVC041 27/24 A2996 RMK AO2 SLP145 T02720239 $
KSGR 251037Z AUTO 15003KT 10SM FEW021 OVC038 27/24 A2996 RMK AO2 T02720239 $
KSGR 251022Z AUTO 15005KT 2 1/2SM HZ SCT022 BKN032 OVC040 27/24 A2995 RMK AO2 T02720239 $
KSGR 251015Z AUTO 15006KT 10SM FEW021 SCT027 OVC032 27/24 A2995 RMK AO2 T02720239 $
KSGR 250953Z AUTO 15007KT 10SM OVC028 27/24 A2994 RMK AO2 SLP138 T02720239 $
KSGR 250942Z AUTO 15007KT 10SM OVC028 27/24 A2994 RMK AO2 T02720239 $
KSGR 250853Z AUTO 15009KT 10SM CLR 27/24 A2993 RMK AO2 SLP134 T02720239 58009 $
KSGR 250753Z AUTO 15012KT 10SM 27/24 A2993 RMK AO2 SLP136 T02720244 $
KSGR 250653Z AUTO A2995 RMK AO2 SLPNO PWINO $
KSGR 250553Z AUTO A2995 RMK AO2 SLPNO 403440261 53010 PWINO $
KSGR 250453Z AUTO A2994 RMK AO2 SLPNO PWINO $
KSGR 250353Z AUTO 15012KT 10SM CLR 28/24 A2993 RMK AO2 SLP135 T02780239 $
KSGR 250253Z AUTO 16009KT 10SM CLR 28/24 A2992 RMK AO2 SLP134 T02830239 53014
KSGR 250153Z 14011KT 10SM SCT027 29/23 A2990 RMK AO2 SLP125 T02940233
KSGR 250053Z 15015KT 10SM CLR 31/23 A2988 RMK AO2 SLP120 T03060228
KSGR 242353Z 13013KT 10SM FEW032 SCT043 32/24 A2988 RMK AO2 SLP119 60000 T03170239 10344 20317 55003
KSGR 242253Z 18015KT 10SM FEW037 33/23 A2988 RMK AO2 SLP118 T03280233
KSGR 242153Z 18011G21KT 10SM SCT045 BKN050 34/23 A2989 RMK AO2 SLP122 T03390233
KSGR 242053Z 17014G24KT 10SM CLR 34/23 A2989 RMK AO2 SLP123 60000 T03390233 58012
KSGR 241953Z 15017G22KT 10SM SCT035 34/24 A2991 RMK AO2 RAE01 SLP129 P0000 T03390239
KSGR 241853Z 18018G22KT 10SM -RA CLR 34/23 A2991 RMK AO2 RAB41 SLP129 P0000 T03390228
KSGR 241753Z 16011KT 10SM SCT040 BKN060 34/24 A2993 RMK AO2 SLP134 T03390244 10339 20267 53009
KSGR 241653Z 17013KT 10SM FEW032 34/24 A2992 RMK AO2 SLP132 T03390239
KSGR 241553Z 18012KT 10SM CLR 32/24 A2990 RMK AO2 SLP127 T03220244
KSGR 241525Z 20010KT 10SM FEW025 31/24 A2990 RMK AO2 T03110244
KSGR 241453Z 20010KT 10SM BKN022 BKN030 OVC038 32/25 A2990 RMK AO2 SLP125 T03170250 51007
KSGR 241448Z 21009G20KT 10SM BKN022 BKN030 OVC038 31/24 A2990 RMK AO2
KSGR 241428Z 18009KT 10SM SCT022 SCT029 BKN036 31/24 A2990 RMK AO2 T03060244
KSGR 241353Z 21009KT 10SM BKN017 BKN025 29/25 A2989 RMK AO2 SLP122 T02940250
KSGR 241253Z 16007KT 10SM BKN026 OVC033 28/25 A2988 RMK AO2 SLP119 T02780250
KSGR 241244Z 17006KT 10SM FEW022 BKN028 28/25 A2988 RMK AO2 T02780250
KSGR 241153Z 16005KT 10SM FEW024 27/24 A2987 RMK AO2 SLP116 T02670244 10272 20261 58003
KSGR 241136Z 16007KT 10SM FEW023 SCT028 27/24 A2988 RMK AO2 T02670244
KSGR 241120Z 16004KT 10SM SCT023 BKN028 27/24 A2988 RMK AO2 T02670244
KSGR 241053Z AUTO 17005KT 10SM CLR 27/24 A2988 RMK AO2 SLP119 T02670244
KSGR 240953Z AUTO 17005KT 10SM FEW018 SCT026 27/24 A2988 RMK AO2 SLP119 T02720244
KSGR 240853Z AUTO 17006KT 10SM CLR 27/24 A2988 RMK AO2 SLP119 T02720244 50001
KSGR 240753Z AUTO 16008KT 10SM CLR 27/24 A2988 RMK AO2 SLP120 T02670244
KSGR 240653Z AUTO 16007KT 10SM CLR 27/24 A2990 RMK AO2 SLP126 T02720244
KSGR 240553Z AUTO 16008KT 10SM FEW026 27/24 A2988 RMK AO2 SLP119 T02720244 10317 20272 403440250 51016
KSGR 240453Z AUTO 16009KT 10SM CLR 28/25 A2986 RMK AO2 SLP112 T02780250
KSGR 240353Z AUTO 14009KT 10SM CLR 28/25 A2985 RMK AO2 SLP109 T02830250
KSGR 240253Z AUTO 15008KT 10SM CLR 28/25 A2983 RMK AO2 SLP103 T02830250 53009
KSGR 240153Z 16011KT 10SM CLR 29/24 A2982 RMK AO2 SLP098 T02890244
KSGR 240053Z 17015KT 10SM CLR 31/24 A2981 RMK AO2 SLP095 T03060239
KSGR 232353Z 17016KT 10SM CLR 32/24 A2981 RMK AO2 SLP094 T03170239 10344 20317 56009